Time;durP1;ratioP1;P1;durP2;ratioP2;P2;SDS_P1;SDS_P2;PMS_P1;PMS_P2;Temp;Humidity;BMP_temperature;BMP_pressure;BME280_temperature;BME280_humidity;BME280_pressure;Samples;Min_cycle;Max_cycle;Signal;HPM_P1;HPM_P2
2021/05/11 00:01:26;;;;;;;;;0.33;0.33;;;;;18.84;49.46;98195.91;4934378;28;102604;-76
2021/05/11 00:03:53;;;;;;;;;1.00;1.00;;;;;18.84;50.32;98192.34;4913607;28;105062;-76
2021/05/11 00:06:20;;;;;;;;;0.67;0.67;;;;;18.85;50.20;98202.22;4924258;28;103510;-76
2021/05/11 00:08:46;;;;;;;;;1.00;1.00;;;;;18.84;50.23;98192.34;4917712;28;105944;-76
2021/05/11 00:11:13;;;;;;;;;0.33;0.33;;;;;18.83;50.12;98188.78;4927940;28;102339;-76
2021/05/11 00:13:40;;;;;;;;;0.67;0.67;;;;;18.83;50.13;98186.03;4924315;28;103517;-76
2021/05/11 00:16:06;;;;;;;;;1.00;1.00;;;;;18.83;50.09;98183.31;4921609;28;102650;-76
2021/05/11 00:18:35;;;;;;;;;0.00;0.00;;;;;18.83;49.52;98187.94;4928395;28;102111;-76
2021/05/11 00:21:08;;;;;;;;;1.00;1.00;;;;;18.82;49.99;98189.91;4941023;28;104242;-76
2021/05/11 00:23:41;;;;;;;;;1.00;1.00;;;;;18.82;49.74;98181.69;4938175;28;103192;-76
2021/05/11 00:26:15;;;;;;;;;1.00;1.00;;;;;18.82;49.88;98183.59;4933459;28;102134;-76
2021/05/11 00:28:51;;;;;;;;;1.00;1.00;;;;;18.82;50.24;98175.38;4938748;28;102958;-76
2021/05/11 00:31:31;;;;;;;;;0.00;0.00;;;;;18.82;49.76;98176.19;4921040;28;102465;-76
2021/05/11 00:34:06;;;;;;;;;0.33;0.33;;;;;18.81;49.84;98179.19;4910001;28;108469;-76
2021/05/11 00:36:39;;;;;;;;;1.00;1.00;;;;;18.82;50.31;98180.84;4930426;28;102100;-76
2021/05/11 00:39:15;;;;;;;;;0.00;0.00;;;;;18.81;49.80;98174.53;4924697;28;102328;-76
2021/05/11 00:41:47;;;;;;;;;0.67;0.00;;;;;18.81;49.84;98174.53;4914825;28;103137;-77
2021/05/11 00:44:24;;;;;;;;;1.00;1.00;;;;;18.81;50.02;98170.97;4932346;28;105123;-77
2021/05/11 00:47:06;;;;;;;;;0.00;0.00;;;;;18.81;49.56;98168.22;4921603;28;103530;-77
2021/05/11 00:49:42;;;;;;;;;1.67;1.00;;;;;18.80;50.00;98161.09;4913993;28;102374;-76
2021/05/11 00:52:14;;;;;;;;;1.00;1.00;;;;;18.80;50.12;98161.09;4921049;28;102735;-77
2021/05/11 00:54:50;;;;;;;;;1.00;1.00;;;;;18.80;50.18;98166.56;4928209;28;102918;-76
2021/05/11 00:57:21;;;;;;;;;1.00;1.00;;;;;18.79;50.15;98163.00;4925025;28;102172;-76
2021/05/11 00:59:57;;;;;;;;;1.00;1.00;;;;;18.79;50.15;98149.31;4920329;28;102222;-76
2021/05/11 01:02:33;;;;;;;;;0.00;0.00;;;;;18.78;49.75;98147.66;4927380;28;102557;-77
2021/05/11 01:05:08;;;;;;;;;0.67;0.67;;;;;18.80;49.81;98152.88;4914997;28;107904;-78
2021/05/11 01:07:42;;;;;;;;;0.33;0.33;;;;;18.80;50.25;98152.88;4913344;28;104985;-79
2021/05/11 01:10:15;;;;;;;;;0.00;0.00;;;;;18.79;50.16;98153.97;4932771;28;102309;-79
2021/05/11 01:12:51;;;;;;;;;1.00;1.00;;;;;18.78;50.33;98153.13;4914371;28;103007;-78
2021/05/11 01:15:23;;;;;;;;;1.33;1.00;;;;;18.79;50.06;98137.53;4900645;28;103105;-79
2021/05/11 01:18:07;;;;;;;;;0.33;0.33;;;;;18.78;49.54;98141.38;4910544;28;102831;-78
2021/05/11 01:20:45;;;;;;;;;0.33;0.33;;;;;18.75;49.90;98142.72;4904995;28;102453;-78
2021/05/11 01:25:58;;;;;;;;;0.00;0.00;;;;;18.78;49.60;98135.91;4928686;28;103253;-79
2021/05/11 01:28:46;;;;;;;;;2.00;0.33;;;;;18.78;49.75;98130.44;4921803;28;102527;-79
2021/05/11 01:32:04;;;;;;;;;1.00;1.00;;;;;18.76;49.76;98127.94;4871892;28;102209;-79
2021/05/11 02:22:48;;;;;;;;;1.00;1.00;;;;;18.73;49.78;98090.13;4924580;28;108118;-79
2021/05/11 02:25:24;;;;;;;;;0.00;0.00;;;;;18.73;50.22;98094.78;4870477;28;103368;-79
2021/05/11 02:27:56;;;;;;;;;2.00;0.00;;;;;18.73;49.79;98092.03;4915133;28;102218;-79
2021/05/11 02:30:28;;;;;;;;;1.00;1.00;;;;;18.73;49.67;98089.31;4936027;28;103517;-79
2021/05/11 02:32:58;;;;;;;;;0.00;0.00;;;;;18.71;50.15;98086.81;4929086;28;103557;-79
2021/05/11 02:35:34;;;;;;;;;0.00;0.00;;;;;18.71;49.91;98087.66;4925113;28;105014;-79
2021/05/11 02:38:10;;;;;;;;;0.00;0.00;;;;;18.72;49.88;98085.75;4934276;28;103810;-79
2021/05/11 02:40:43;;;;;;;;;0.00;0.00;;;;;18.71;49.73;98084.09;4933010;28;102124;-78
2021/05/11 02:43:38;;;;;;;;;1.00;1.00;;;;;18.72;50.19;98077.53;4929652;28;105897;-79
2021/05/11 02:46:12;;;;;;;;;0.00;0.00;;;;;18.70;49.61;98072.31;4935951;28;102387;-79
2021/05/11 02:48:47;;;;;;;;;0.00;0.00;;;;;18.71;49.60;98081.34;4934811;28;103387;-79
2021/05/11 02:51:19;;;;;;;;;0.00;0.00;;;;;18.70;50.12;98068.72;4949253;28;102484;-79
2021/05/11 02:53:52;;;;;;;;;1.00;1.00;;;;;18.70;49.85;98080.53;4921838;28;103410;-79
2021/05/11 02:56:25;;;;;;;;;1.00;1.00;;;;;18.70;49.87;98072.31;4937291;28;102463;-79
2021/05/11 02:58:56;;;;;;;;;1.67;1.00;;;;;18.67;49.92;98067.38;4948202;28;102711;-79
2021/05/11 03:01:23;;;;;;;;;0.00;0.00;;;;;18.69;50.41;98073.38;4944009;28;103648;-79
2021/05/11 03:03:49;;;;;;;;;0.00;0.00;;;;;18.68;50.15;98079.97;4929064;28;104072;-79
2021/05/11 03:06:16;;;;;;;;;0.00;0.00;;;;;18.69;49.83;98078.03;4940765;28;103836;-78
2021/05/11 03:08:44;;;;;;;;;1.00;1.00;;;;;18.69;50.07;98084.34;4930489;28;102272;-79
2021/05/11 03:11:11;;;;;;;;;0.67;0.67;;;;;18.69;50.17;98078.88;4943366;28;102747;-79
2021/05/11 03:13:38;;;;;;;;;0.33;0.00;;;;;18.68;50.07;98077.25;4948855;28;103039;-79
2021/05/11 03:16:05;;;;;;;;;1.00;0.00;;;;;18.68;49.99;98079.97;4937083;28;103518;-77
2021/05/11 03:18:31;;;;;;;;;0.00;0.00;;;;;18.70;50.35;98082.44;4931044;28;102531;-77
2021/05/11 03:20:59;;;;;;;;;1.00;1.00;;;;;18.68;49.75;98074.50;4940708;28;104613;-77
2021/05/11 03:23:25;;;;;;;;;0.67;0.67;;;;;18.69;50.07;98073.38;4929318;28;103828;-77
2021/05/11 03:25:52;;;;;;;;;0.00;0.00;;;;;18.68;50.11;98077.25;4929145;28;104739;-77
2021/05/11 03:28:18;;;;;;;;;0.00;0.00;;;;;18.68;49.83;98071.75;4941398;28;102279;-77
2021/05/11 03:30:45;;;;;;;;;0.67;0.67;;;;;18.68;49.54;98068.19;4944424;28;103288;-77
2021/05/11 03:33:12;;;;;;;;;0.00;0.00;;;;;18.67;49.94;98070.09;4940024;28;105070;-77
2021/05/11 03:35:38;;;;;;;;;0.00;0.00;;;;;18.67;49.73;98070.09;4943131;28;102595;-77
2021/05/11 03:38:06;;;;;;;;;0.00;0.00;;;;;18.68;49.40;98068.19;4920066;28;102803;-76
2021/05/11 03:40:33;;;;;;;;;0.00;0.00;;;;;18.68;50.10;98069.03;4935937;28;102554;-76
2021/05/11 03:43:37;;;;;;;;;0.33;0.33;;;;;18.67;50.00;98085.72;4939889;28;105735;-76
2021/05/11 03:45:57;;;;;;;;;0.00;0.00;;;;;18.68;50.21;98068.19;4870301;28;102271;-79
2021/05/11 03:48:24;;;;;;;;;0.00;0.00;;;;;18.67;49.81;98064.63;4922274;28;102362;-79
2021/05/11 03:50:52;;;;;;;;;0.00;0.00;;;;;18.67;49.79;98061.88;4929464;28;103106;-79
2021/05/11 03:53:19;;;;;;;;;0.00;0.00;;;;;18.67;50.30;98059.16;4924131;28;104837;-79
2021/05/11 03:55:47;;;;;;;;;0.00;0.00;;;;;18.67;50.07;98053.69;4920527;28;102172;-79
2021/05/11 03:58:14;;;;;;;;;0.00;0.00;;;;;18.67;49.60;98047.38;4937211;28;102724;-78
2021/05/11 04:00:41;;;;;;;;;0.00;0.00;;;;;18.67;50.09;98047.38;4941555;28;103801;-79
2021/05/11 04:03:08;;;;;;;;;0.00;0.00;;;;;18.66;49.52;98052.03;4930738;28;104162;-80
2021/05/11 04:05:36;;;;;;;;;0.00;0.00;;;;;18.67;50.30;98048.19;4937766;28;102362;-79
2021/05/11 04:08:04;;;;;;;;;0.67;0.00;;;;;18.67;49.50;98041.88;4942520;28;102676;-79
2021/05/11 04:10:42;;;;;;;;;0.00;0.00;;;;;18.66;49.65;98054.75;4943550;28;102784;-79
2021/05/11 04:18:40;;;;;;;;;1.67;1.00;;;;;18.65;49.68;98050.38;4931233;28;102235;-76
2021/05/11 04:21:07;;;;;;;;;0.00;0.00;;;;;18.66;49.82;98046.53;4943446;28;103114;-76
2021/05/11 04:23:35;;;;;;;;;0.00;0.00;;;;;18.66;50.05;98048.44;4921999;28;104267;-77
2021/05/11 04:26:02;;;;;;;;;0.00;0.00;;;;;18.66;50.17;98052.03;4931436;28;102856;-77
2021/05/11 04:28:29;;;;;;;;;0.00;0.00;;;;;18.66;49.49;98049.28;4942027;28;102787;-76
2021/05/11 04:30:56;;;;;;;;;0.00;0.00;;;;;18.67;49.72;98053.69;4931051;28;102499;-76
2021/05/11 04:33:26;;;;;;;;;0.00;0.00;;;;;18.65;50.00;98044.88;4924559;28;104339;-76
2021/05/11 04:35:53;;;;;;;;;0.00;0.00;;;;;18.66;50.36;98052.03;4935349;28;102270;-76
2021/05/11 04:38:22;;;;;;;;;0.00;0.00;;;;;18.67;49.83;98052.84;4942778;28;102794;-77
2021/05/11 04:40:49;;;;;;;;;0.67;0.67;;;;;18.67;49.62;98048.19;4943096;28;102221;-76
2021/05/11 04:43:17;;;;;;;;;0.00;0.00;;;;;18.67;50.28;98050.09;4946809;28;104248;-76
2021/05/11 04:45:45;;;;;;;;;0.00;0.00;;;;;18.66;49.69;98052.03;4945141;28;102751;-77
2021/05/11 04:48:12;;;;;;;;;0.00;0.00;;;;;18.66;49.58;98043.81;4948236;28;102313;-77
2021/05/11 04:50:39;;;;;;;;;0.00;0.00;;;;;18.66;50.00;98041.06;4953439;28;102276;-77
2021/05/11 04:53:06;;;;;;;;;0.00;0.00;;;;;18.67;49.85;98053.69;4936411;28;108873;-77
2021/05/11 04:55:34;;;;;;;;;1.00;0.00;;;;;18.67;49.33;98050.09;4920912;28;103803;-76
2021/05/11 04:58:02;;;;;;;;;0.00;0.00;;;;;18.67;50.23;98050.94;4935824;28;102199;-77
2021/05/11 05:00:29;;;;;;;;;0.67;0.67;;;;;18.68;49.82;98049.03;4946864;28;102343;-77
2021/05/11 05:03:00;;;;;;;;;0.33;0.33;;;;;18.68;49.62;98047.13;4933602;28;104390;-77
2021/05/11 05:05:27;;;;;;;;;0.00;0.00;;;;;18.68;49.73;98049.84;4948383;28;102219;-77
2021/05/11 05:07:54;;;;;;;;;0.00;0.00;;;;;18.69;49.59;98046.00;4927142;28;102551;-77
2021/05/11 05:10:21;;;;;;;;;1.00;0.33;;;;;18.68;49.95;98041.63;4932601;28;105240;-76
2021/05/11 05:12:49;;;;;;;;;0.00;0.00;;;;;18.68;49.95;98038.91;4931498;28;104077;-76
2021/05/11 05:15:16;;;;;;;;;1.00;0.00;;;;;18.69;50.09;98046.00;4928419;28;103677;-77
2021/05/11 05:17:43;;;;;;;;;1.00;1.00;;;;;18.69;49.77;98046.00;4922967;28;102142;-76
2021/05/11 05:20:11;;;;;;;;;0.00;0.00;;;;;18.69;49.92;98036.94;4920250;28;104507;-76
2021/05/11 05:22:38;;;;;;;;;0.00;0.00;;;;;18.70;49.84;98036.69;4926402;28;108946;-76
2021/05/11 05:25:19;;;;;;;;;0.00;0.00;;;;;18.70;49.91;98047.66;4934431;28;102219;-76
2021/05/11 05:30:23;;;;;;;;;0.67;0.67;;;;;18.69;49.85;98040.53;4919765;28;106072;-76
2021/05/11 05:32:54;;;;;;;;;1.00;0.00;;;;;18.71;50.14;98027.41;4931245;28;104082;-76
2021/05/11 05:35:21;;;;;;;;;0.00;0.00;;;;;18.71;49.66;98026.56;4928931;28;102075;-77
2021/05/11 05:37:48;;;;;;;;;0.00;0.00;;;;;18.70;49.63;98025.75;4929327;28;102168;-77
2021/05/11 05:40:19;;;;;;;;;0.33;0.00;;;;;18.71;49.91;98027.41;4926909;28;103127;-77
2021/05/11 05:42:47;;;;;;;;;0.00;0.00;;;;;18.72;50.28;98028.22;4927925;28;104257;-77
2021/05/11 05:45:14;;;;;;;;;0.00;0.00;;;;;18.72;49.97;98022.75;4926245;28;102216;-79
2021/05/11 05:47:50;;;;;;;;;0.00;0.00;;;;;18.71;50.00;98021.91;4944210;28;103326;-79
2021/05/11 05:50:21;;;;;;;;;0.00;0.00;;;;;18.72;50.06;98020.00;4870123;28;104335;-78
2021/05/11 05:52:59;;;;;;;;;0.00;0.00;;;;;18.73;50.06;98012.63;4916197;28;103800;-79
2021/05/11 05:55:27;;;;;;;;;0.00;0.00;;;;;18.73;50.00;98012.63;4934612;28;102791;-79
2021/05/11 05:57:55;;;;;;;;;0.00;0.00;;;;;18.73;49.58;98014.25;4941852;28;103551;-80
2021/05/11 06:00:25;;;;;;;;;0.67;0.67;;;;;18.73;49.54;98010.72;4941203;28;103536;-79
2021/05/11 06:02:54;;;;;;;;;0.00;0.00;;;;;18.73;49.99;98010.72;4925385;28;104239;-79
2021/05/11 06:05:23;;;;;;;;;0.67;0.00;;;;;18.73;49.51;98008.75;4941435;28;102555;-78
2021/05/11 06:07:50;;;;;;;;;0.00;0.00;;;;;18.73;50.07;98001.66;4936836;28;102451;-78
2021/05/11 06:10:18;;;;;;;;;0.00;0.00;;;;;18.75;49.35;98010.41;4922907;28;102770;-79
2021/05/11 06:12:51;;;;;;;;;0.00;0.00;;;;;18.76;49.34;98007.41;4947272;28;104149;-79
2021/05/11 06:18:05;;;;;;;;;1.00;1.00;;;;;18.76;49.52;98004.69;4942503;28;102302;-79
2021/05/11 06:20:32;;;;;;;;;1.00;0.00;;;;;18.77;49.87;98005.50;4931545;28;102691;-79
2021/05/11 06:22:59;;;;;;;;;0.00;0.00;;;;;18.78;49.50;97998.94;4937336;28;104147;-79
2021/05/11 06:25:26;;;;;;;;;0.00;0.00;;;;;18.78;49.78;97998.94;4929589;28;102912;-79
2021/05/11 06:27:58;;;;;;;;;0.00;0.00;;;;;18.78;49.89;97994.25;4937508;28;102589;-79
2021/05/11 06:30:25;;;;;;;;;0.00;0.00;;;;;18.77;49.88;97998.13;4937779;28;102403;-79
2021/05/11 06:32:54;;;;;;;;;0.00;0.00;;;;;18.79;49.95;97995.09;4928847;28;104244;-79
2021/05/11 06:35:25;;;;;;;;;0.00;0.00;;;;;18.79;49.73;97995.91;4939485;28;102241;-79
2021/05/11 06:37:58;;;;;;;;;0.00;0.00;;;;;18.80;50.15;97988.53;4948171;28;102190;-78
2021/05/11 06:40:26;;;;;;;;;0.33;0.00;;;;;18.80;49.67;97994.84;4941219;28;102260;-79
2021/05/11 06:42:54;;;;;;;;;0.00;0.00;;;;;18.80;49.52;97985.78;4917786;28;103984;-79
2021/05/11 06:48:16;;;;;;;;;0.67;0.00;;;;;18.81;49.52;97991.00;4937854;28;103563;-77
2021/05/11 06:53:39;;;;;;;;;1.00;0.00;;;;;18.83;50.01;97996.19;4854851;28;109357;-77
2021/05/11 06:56:07;;;;;;;;;0.00;0.00;;;;;18.82;49.82;97989.94;4938146;28;103298;-77
2021/05/11 06:58:35;;;;;;;;;0.00;0.00;;;;;18.82;49.50;97981.72;4940200;28;102081;-77
2021/05/11 07:01:03;;;;;;;;;1.00;1.00;;;;;18.83;49.98;97982.50;4927920;28;102322;-77
2021/05/11 07:03:30;;;;;;;;;0.00;0.00;;;;;18.83;49.40;97979.75;4951527;28;104449;-77
2021/05/11 07:05:59;;;;;;;;;0.00;0.00;;;;;18.84;49.90;97981.41;4937992;28;102266;-77
2021/05/11 07:10:57;;;;;;;;;0.00;0.00;;;;;18.85;49.59;97985.81;4938653;28;105486;-77
2021/05/11 07:13:25;;;;;;;;;0.00;0.00;;;;;18.86;49.88;97990.22;4940084;28;104383;-76
2021/05/11 07:15:52;;;;;;;;;0.00;0.00;;;;;18.87;49.87;97991.81;4922827;28;102158;-77
2021/05/11 07:18:22;;;;;;;;;0.00;0.00;;;;;18.87;49.85;97986.34;4930302;28;102215;-77
2021/05/11 07:20:50;;;;;;;;;0.00;0.00;;;;;18.88;49.29;97985.25;4922466;28;102579;-77
2021/05/11 07:23:20;;;;;;;;;1.00;0.33;;;;;18.88;49.56;97986.09;4932215;28;104156;-77
2021/05/11 07:30:59;;;;;;;;;0.00;0.00;;;;;18.90;49.25;97985.84;4911816;28;102245;-77
2021/05/11 07:33:29;;;;;;;;;0.00;0.00;;;;;18.90;49.42;97977.59;4918030;28;104849;-77
2021/05/11 07:35:57;;;;;;;;;0.00;0.00;;;;;18.91;49.42;97976.53;4939680;28;105638;-77
2021/05/11 07:38:25;;;;;;;;;0.00;0.00;;;;;18.92;49.70;97972.66;4922977;28;103244;-77
2021/05/11 07:40:52;;;;;;;;;0.00;0.00;;;;;18.91;49.54;97973.78;4942813;28;102689;-77
2021/05/11 07:43:21;;;;;;;;;0.00;0.00;;;;;18.93;49.64;97979.81;4930241;28;104379;-76
2021/05/11 07:46:16;;;;;;;;;0.00;0.00;;;;;18.93;49.52;97968.84;4944579;28;102675;-77
2021/05/11 08:15:53;;;;;;;;;1.00;0.00;;;;;18.99;49.70;97959.56;4928881;28;109238;-77
2021/05/11 08:29:08;;;;;;;;;0.00;0.00;;;;;19.01;49.42;97955.44;4931008;28;102825;-77
2021/05/11 08:31:36;;;;;;;;;0.00;0.00;;;;;19.02;49.41;97956.25;4915984;28;103197;-77
2021/05/11 08:34:04;;;;;;;;;0.00;0.00;;;;;19.03;49.52;97956.00;4933695;28;102437;-76
2021/05/11 08:36:32;;;;;;;;;0.33;0.00;;;;;19.03;49.62;97952.44;4930420;28;104102;-76
2021/05/11 08:38:59;;;;;;;;;0.00;0.00;;;;;19.03;49.50;97949.69;4924539;28;102637;-77
2021/05/11 08:41:26;;;;;;;;;0.00;0.00;;;;;19.04;49.60;97956.81;4928744;28;102671;-77
2021/05/11 08:43:54;;;;;;;;;1.00;0.00;;;;;19.04;49.37;97954.09;4929252;28;102383;-77
2021/05/11 08:46:21;;;;;;;;;0.00;0.00;;;;;19.07;49.24;97953.53;4926657;28;104119;-77
2021/05/11 08:48:50;;;;;;;;;0.33;0.33;;;;;19.05;49.49;97945.56;4948172;28;102688;-77
2021/05/11 08:51:23;;;;;;;;;0.00;0.00;;;;;19.07;49.23;97959.00;4937083;28;102445;-77
2021/05/11 09:08:02;;;;;;;;;0.33;0.00;;;;;19.10;49.54;97955.72;4925297;28;104223;-77
2021/05/11 09:24:39;;;;;;;;;0.00;0.00;;;;;19.11;49.32;97949.97;4934152;28;103212;-79
2021/05/11 09:54:45;;;;;;;;;0.00;0.00;;;;;19.17;49.73;97948.06;4940254;28;102459;-76
2021/05/11 10:46:58;;;;;;;;;0.00;0.00;;;;;19.30;49.64;97911.91;4938860;28;111490;-77
2021/05/11 10:49:30;;;;;;;;;0.00;0.00;;;;;19.31;49.61;97921.78;4862789;28;104127;-76
2021/05/11 10:52:23;;;;;;;;;0.00;0.00;;;;;19.32;49.74;97912.44;4946794;28;102157;-77
2021/05/11 10:55:19;;;;;;;;;0.00;0.00;;;;;19.33;49.45;97910.53;4883394;28;102238;-76
2021/05/11 10:58:04;;;;;;;;;0.00;0.00;;;;;19.33;49.67;97905.88;4936250;28;104297;-76
2021/05/11 11:00:43;;;;;;;;;0.00;0.00;;;;;19.33;49.63;97908.59;4875205;28;102791;-77
2021/05/11 11:03:18;;;;;;;;;0.00;0.00;;;;;19.35;49.53;97913.81;4937033;28;102518;-76
2021/05/11 11:05:56;;;;;;;;;0.00;0.00;;;;;19.36;49.70;97905.31;4950843;28;102653;-76
2021/05/11 11:08:39;;;;;;;;;0.00;0.00;;;;;19.36;49.71;97902.56;4943650;28;104885;-77
2021/05/11 11:11:17;;;;;;;;;0.00;0.00;;;;;19.37;49.61;97898.72;4944972;28;102141;-77
2021/05/11 11:13:51;;;;;;;;;0.33;0.00;;;;;19.39;49.61;97910.25;4948823;28;102529;-77
2021/05/11 11:16:38;;;;;;;;;0.00;0.00;;;;;19.39;49.75;97896.56;4867564;28;102905;-79
2021/05/11 11:19:12;;;;;;;;;0.00;0.00;;;;;19.40;49.80;97892.72;4924515;28;104087;-79
2021/05/11 11:24:36;;;;;;;;;0.00;0.00;;;;;19.42;49.74;97890.50;4877868;28;102249;-78
2021/05/11 11:27:04;;;;;;;;;0.00;0.00;;;;;19.43;49.64;97889.44;4925592;28;103136;-79
2021/05/11 11:29:31;;;;;;;;;0.00;0.00;;;;;19.45;49.53;97906.44;4941906;28;105455;-79
2021/05/11 11:31:59;;;;;;;;;0.00;0.00;;;;;19.45;49.58;97889.19;4932534;28;102655;-79
2021/05/11 11:34:35;;;;;;;;;0.00;0.00;;;;;19.45;49.72;97879.00;4934992;28;105297;-79
2021/05/11 11:37:10;;;;;;;;;0.00;0.00;;;;;19.48;49.40;97878.47;4932048;28;102716;-79
2021/05/11 11:39:48;;;;;;;;;0.00;0.00;;;;;19.49;49.64;97879.31;4938945;28;104020;-79
2021/05/11 11:42:24;;;;;;;;;0.00;0.00;;;;;19.50;49.77;97875.44;4942181;28;102508;-79
2021/05/11 11:44:55;;;;;;;;;0.00;0.00;;;;;19.51;49.58;97866.13;4871375;28;102808;-77
2021/05/11 11:47:23;;;;;;;;;0.00;0.00;;;;;19.53;49.55;97870.25;4925560;28;102120;-76
2021/05/11 11:49:53;;;;;;;;;0.00;0.00;;;;;19.53;49.50;97867.50;4935973;28;105369;-77
2021/05/11 12:00:20;;;;;;;;;0.00;0.00;;;;;19.60;49.38;97865.28;4936278;28;111692;-77
2021/05/11 12:02:54;;;;;;;;;0.00;0.00;;;;;19.62;49.28;97862.28;4939424;28;102200;-77
2021/05/11 12:05:24;;;;;;;;;0.00;0.00;;;;;19.63;49.35;97863.94;4943228;28;106463;-77
2021/05/11 12:08:04;;;;;;;;;1.00;0.00;;;;;19.65;49.50;97860.88;4949793;28;102267;-76
2021/05/11 12:10:32;;;;;;;;;0.00;0.00;;;;;19.67;49.42;97850.47;4941519;28;105392;-77
2021/05/11 12:13:03;;;;;;;;;0.00;0.00;;;;;19.68;49.31;97841.16;4941956;28;102647;-77
2021/05/11 12:15:30;;;;;;;;;1.00;0.00;;;;;19.69;49.42;97835.38;4922303;28;102523;-78
2021/05/11 12:18:12;;;;;;;;;0.00;0.00;;;;;19.72;49.65;97839.50;4928582;28;104563;-79
2021/05/11 12:21:00;;;;;;;;;0.00;0.00;;;;;19.73;49.49;97825.47;4879577;28;108792;-79
2021/05/11 12:23:27;;;;;;;;;1.00;0.00;;;;;19.76;49.36;97829.59;4938226;28;104140;-79
2021/05/11 12:25:59;;;;;;;;;0.00;0.00;;;;;19.77;49.18;97825.78;4946113;28;103619;-79
2021/05/11 12:28:44;;;;;;;;;1.00;0.00;;;;;19.80;49.42;97819.72;4934776;28;102149;-79
2021/05/11 12:31:12;;;;;;;;;0.00;0.00;;;;;19.82;49.42;97823.00;4937426;28;106119;-78
2021/05/11 12:33:43;;;;;;;;;0.00;0.00;;;;;19.84;49.14;97826.28;4944228;28;102558;-78
2021/05/11 12:36:14;;;;;;;;;0.00;0.00;;;;;19.85;49.24;97815.03;4936119;28;102178;-79
2021/05/11 12:38:42;;;;;;;;;0.00;0.00;;;;;19.87;49.25;97815.56;4944073;28;103166;-79
2021/05/11 12:41:25;;;;;;;;;0.00;0.00;;;;;19.87;49.44;97801.03;4942209;28;103864;-79
2021/05/11 12:43:52;;;;;;;;;0.00;0.00;;;;;19.91;49.19;97815.81;4873050;28;103787;-78
2021/05/11 12:46:29;;;;;;;;;0.00;0.00;;;;;19.94;49.28;97804.31;4924791;28;102199;-77
2021/05/11 12:49:01;;;;;;;;;0.00;0.00;;;;;19.95;49.09;97792.19;4949046;28;104228;-77
2021/05/11 12:51:40;;;;;;;;;0.00;0.00;;;;;19.97;49.13;97803.72;4943561;28;104208;-77
2021/05/11 12:54:32;;;;;;;;;0.00;0.00;;;;;19.99;48.96;97791.38;4926092;28;104422;-77
2021/05/11 13:16:54;;;;;;;;;0.00;0.00;;;;;20.19;48.64;97763.00;4929515;28;102283;-77
2021/05/11 13:22:34;;;;;;;;;0.00;0.00;;;;;20.23;48.89;97753.09;4926526;28;104286;-77
2021/05/11 13:33:44;;;;;;;;;0.00;0.00;;;;;20.38;48.76;97750.28;4869366;28;102422;-77
2021/05/11 13:36:11;;;;;;;;;0.00;0.00;;;;;20.39;48.54;97740.97;4932944;28;104134;-77
2021/05/11 13:38:38;;;;;;;;;0.00;0.00;;;;;20.42;48.83;97743.13;4940745;28;104651;-77
2021/05/11 13:41:06;;;;;;;;;0.00;0.00;;;;;20.45;48.40;97742.53;4936637;28;104165;-77
2021/05/11 13:43:33;;;;;;;;;0.00;0.00;;;;;20.49;48.32;97740.88;4949229;28;102244;-77
2021/05/11 13:46:00;;;;;;;;;0.00;0.00;;;;;20.54;48.48;97733.69;4935336;28;103794;-77
2021/05/11 13:48:36;;;;;;;;;0.00;0.00;;;;;20.60;48.58;97727.06;4942197;28;102041;-77
2021/05/11 13:51:25;;;;;;;;;0.00;0.00;;;;;20.66;48.21;97723.19;4946307;28;105403;-77
2021/05/11 13:53:58;;;;;;;;;0.00;0.00;;;;;20.75;48.26;97719.53;4936176;28;102335;-77
2021/05/11 14:04:22;;;;;;;;;0.00;0.00;;;;;21.01;47.85;97706.38;4937268;28;102527;-77
2021/05/11 14:06:50;;;;;;;;;0.00;0.00;;;;;21.03;47.44;97706.09;4916167;28;104098;-76
2021/05/11 14:09:18;;;;;;;;;0.00;0.00;;;;;21.07;47.58;97696.97;4919065;28;102413;-77
2021/05/11 14:11:45;;;;;;;;;0.00;0.00;;;;;21.12;47.47;97690.59;4942503;28;102496;-77
2021/05/11 14:14:16;;;;;;;;;0.00;0.00;;;;;21.17;47.30;97696.88;4941189;28;102579;-77
2021/05/11 14:16:44;;;;;;;;;0.00;0.00;;;;;21.23;47.29;97689.41;4946766;28;104432;-77
2021/05/11 14:19:12;;;;;;;;;0.00;0.00;;;;;21.26;47.06;97684.13;4925550;28;102791;-77
2021/05/11 14:21:40;;;;;;;;;0.00;0.00;;;;;21.32;47.21;97671.97;4930068;28;102109;-77
2021/05/11 14:24:08;;;;;;;;;0.00;0.00;;;;;21.38;47.01;97666.41;4944767;28;102209;-77
2021/05/11 14:26:35;;;;;;;;;0.00;0.00;;;;;21.42;47.04;97670.22;4937340;28;103513;-77
2021/05/11 14:29:02;;;;;;;;;0.00;0.00;;;;;21.44;46.46;97671.53;4930307;28;102481;-77
2021/05/11 14:31:30;;;;;;;;;0.00;0.00;;;;;21.45;47.21;97666.84;4927976;28;102203;-77
2021/05/11 14:34:00;;;;;;;;;0.00;0.00;;;;;21.47;46.56;97656.41;4943385;28;104181;-77
2021/05/11 14:36:27;;;;;;;;;0.00;0.00;;;;;21.46;46.63;97665.75;4934230;28;104300;-77
2021/05/11 14:38:54;;;;;;;;;0.00;0.00;;;;;21.46;47.03;97665.75;4927990;28;102263;-77
2021/05/11 14:41:23;;;;;;;;;0.00;0.00;;;;;21.48;47.22;97658.03;4933770;28;102117;-77
2021/05/11 14:43:50;;;;;;;;;0.00;0.00;;;;;21.49;46.97;97657.72;4924880;28;102583;-77
2021/05/11 14:46:17;;;;;;;;;0.00;0.00;;;;;21.51;46.90;97652.75;4934522;28;104222;-79
2021/05/11 14:48:44;;;;;;;;;0.00;0.00;;;;;21.54;46.90;97663.16;4940357;28;102352;-80
2021/05/11 14:51:12;;;;;;;;;1.00;0.00;;;;;21.58;47.02;97657.88;4934957;28;102638;-79
2021/05/11 14:53:40;;;;;;;;;0.00;0.00;;;;;21.61;46.84;97652.63;4926573;28;103299;-80
2021/05/11 14:56:12;;;;;;;;;0.00;0.00;;;;;21.66;46.56;97662.72;4928024;28;104393;-80
2021/05/11 14:58:39;;;;;;;;;0.00;0.00;;;;;21.74;47.53;97659.34;4925247;28;102821;-81
2021/05/11 15:01:08;;;;;;;;;1.00;0.00;;;;;21.85;47.35;97657.25;4921694;28;102199;-79
2021/05/11 15:03:35;;;;;;;;;0.00;0.00;;;;;21.91;46.55;97651.38;4932875;28;107134;-80
2021/05/11 15:06:21;;;;;;;;;0.00;0.00;;;;;21.92;46.85;97653.03;4933782;28;108963;-79
2021/05/11 15:08:48;;;;;;;;;0.00;0.00;;;;;21.92;46.63;97646.72;4934020;28;102535;-79
2021/05/11 15:11:15;;;;;;;;;0.00;0.00;;;;;21.92;46.25;97644.78;4923804;28;103477;-80
2021/05/11 15:13:44;;;;;;;;;0.00;0.00;;;;;21.93;46.60;97649.16;4933425;28;102651;-80
2021/05/11 15:16:14;;;;;;;;;0.67;0.67;;;;;21.93;46.67;97638.16;4921124;28;104082;-80
2021/05/11 15:18:42;;;;;;;;;0.33;0.33;;;;;21.94;47.12;97633.47;4937320;28;102653;-79
2021/05/11 15:21:10;;;;;;;;;0.00;0.00;;;;;21.99;46.71;97648.00;4934905;28;105420;-79
2021/05/11 15:23:39;;;;;;;;;1.00;0.67;;;;;21.99;46.44;97642.50;4928401;28;102806;-79
2021/05/11 15:26:06;;;;;;;;;1.00;0.00;;;;;21.99;46.23;97645.25;4932174;28;103974;-79
2021/05/11 15:28:35;;;;;;;;;0.00;0.00;;;;;22.00;46.62;97637.81;4935684;28;102778;-79
2021/05/11 15:31:06;;;;;;;;;1.00;1.00;;;;;22.01;46.65;97634.75;4927582;28;102784;-79
2021/05/11 15:33:33;;;;;;;;;0.33;0.33;;;;;21.99;46.12;97628.72;4934818;28;102263;-79
2021/05/11 15:36:00;;;;;;;;;1.00;1.00;;;;;22.00;46.42;97626.78;4930157;28;104122;-79
2021/05/11 15:38:29;;;;;;;;;1.00;1.00;;;;;21.99;46.54;97625.97;4929886;28;102710;-79
2021/05/11 15:40:56;;;;;;;;;0.00;0.00;;;;;22.03;46.37;97620.69;4928357;28;108690;-79
2021/05/11 15:43:24;;;;;;;;;0.00;0.00;;;;;22.05;46.25;97613.78;4942717;28;102247;-79
2021/05/11 15:45:51;;;;;;;;;0.00;0.00;;;;;22.05;46.31;97619.28;4934573;28;104196;-77
2021/05/11 15:48:19;;;;;;;;;0.67;0.00;;;;;22.03;46.26;97618.75;4934483;28;102929;-78
2021/05/11 15:50:48;;;;;;;;;1.00;0.00;;;;;22.02;46.60;97611.59;4939830;28;102611;-77
2021/05/11 15:53:18;;;;;;;;;0.00;0.00;;;;;21.97;46.38;97616.38;4946591;28;102239;-77
2021/05/11 15:55:47;;;;;;;;;0.67;0.67;;;;;21.93;46.42;97618.09;4937919;28;111581;-78
2021/05/11 15:58:15;;;;;;;;;0.00;0.00;;;;;21.96;46.65;97612.00;4935904;28;102460;-77
2021/05/11 16:00:43;;;;;;;;;0.00;0.00;;;;;21.97;46.86;97599.88;4934244;28;102363;-77
2021/05/11 16:03:10;;;;;;;;;0.33;0.33;;;;;21.92;46.82;97605.41;4939698;28;105691;-77
2021/05/11 16:05:38;;;;;;;;;1.00;0.33;;;;;21.89;46.58;97608.75;4943551;28;104182;-77
2021/05/11 16:08:06;;;;;;;;;0.33;0.00;;;;;21.85;46.99;97607.72;4951479;28;102294;-77
2021/05/11 16:10:33;;;;;;;;;1.00;0.00;;;;;21.82;46.89;97592.63;4919666;28;103092;-78